KABE/ABE METAR and TAF weather

Enter ICAO airport designator
Station Type Date Time Source
KABE METAR 2020/12/05 23:51 UTC NOAA

KABE 052351Z 33019G26KT 10SM OVC044 04/M03 A2982 RMK AO2 PK WND 31028/2334 SLP100 60000 T00441033 10061 20039 50018


Station Type Date Time Source
KABE Decoded METAR 2020/12/05 23:51 UTC NOAA

LEHIGH VALLEY INTERNATIONAL AIRPORT, PA, United States (KABE) 40-39N 075-27W 114M
Dec 05, 2020 - 06:51 PM EST / 2020.12.05 2351 UTC
Wind: from the NNW (330 degrees) at 22 MPH (19 KT) gusting to 30 MPH (26 KT):0
Visibility: 10 mile(s):0
Sky conditions: overcast
Temperature: 39.9 F (4.4 C)
Dew Point: 26.1 F (-3.3 C)
Relative Humidity: 57%
Pressure (altimeter): 29.82 in. Hg (1009 hPa)
Pressure tendency: 0.05 inches (1.8 hPa) higher than three hours ago
ob: KABE 052351Z 33019G26KT 10SM OVC044 04/M03 A2982 RMK AO2 PK WND 31028/2334 SLP100 60000 T00441033 10061 20039 50018
cycle: 0

Station Type Date Time Source
KABE TAF 2020/12/05 20:18 UTC NOAA

TAF
AMD KABE 052017Z 0520/0618 33016G26KT P6SM BKN035 OVC060
FM052300 31012G22KT P6SM SCT035 BKN200
FM060400 31010KT P6SM SKC
FM061400 30012G20KT P6SM SKC

Example: see airport list